sensor_id;sensor_type;location;lat;lon;timestamp;pressure;altitude;pressure_sealevel;temperature;humidity
48652;BME280;34442;52.362;-1.302;2024-01-06T00:00:46;99658.19;;;6.88;100.00
48652;BME280;34442;52.362;-1.302;2024-01-06T00:03:14;99664.66;;;6.66;100.00
48652;BME280;34442;52.362;-1.302;2024-01-06T00:05:40;99664.03;;;6.70;100.00
48652;BME280;34442;52.362;-1.302;2024-01-06T00:08:05;99668.94;;;6.60;100.00
48652;BME280;34442;52.362;-1.302;2024-01-06T00:10:31;99669.75;;;6.61;100.00
48652;BME280;34442;52.362;-1.302;2024-01-06T00:12:57;99674.34;;;6.67;100.00
48652;BME280;34442;52.362;-1.302;2024-01-06T00:15:23;99676.41;;;6.78;100.00
48652;BME280;34442;52.362;-1.302;2024-01-06T00:17:48;99669.63;;;6.76;100.00
48652;BME280;34442;52.362;-1.302;2024-01-06T00:20:14;99685.69;;;6.82;100.00
48652;BME280;34442;52.362;-1.302;2024-01-06T00:22:39;99688.13;;;6.77;100.00
48652;BME280;34442;52.362;-1.302;2024-01-06T00:25:06;99681.41;;;6.94;100.00
48652;BME280;34442;52.362;-1.302;2024-01-06T00:27:32;99685.63;;;6.69;100.00
48652;BME280;34442;52.362;-1.302;2024-01-06T00:29:57;99686.78;;;6.53;100.00
48652;BME280;34442;52.362;-1.302;2024-01-06T00:32:23;99689.81;;;6.85;100.00
48652;BME280;34442;52.362;-1.302;2024-01-06T00:34:48;99696.69;;;6.66;100.00
48652;BME280;34442;52.362;-1.302;2024-01-06T00:37:14;99699.19;;;6.67;100.00
48652;BME280;34442;52.362;-1.302;2024-01-06T00:39:39;99700.81;;;6.68;100.00
48652;BME280;34442;52.362;-1.302;2024-01-06T00:42:05;99705.19;;;6.83;100.00
48652;BME280;34442;52.362;-1.302;2024-01-06T00:44:30;99711.13;;;6.78;100.00
48652;BME280;34442;52.362;-1.302;2024-01-06T00:46:56;99708.03;;;6.75;100.00
48652;BME280;34442;52.362;-1.302;2024-01-06T00:49:21;99712.16;;;6.77;100.00
48652;BME280;34442;52.362;-1.302;2024-01-06T00:51:47;99710.69;;;6.75;100.00
48652;BME280;34442;52.362;-1.302;2024-01-06T00:54:12;99705.34;;;6.75;100.00
48652;BME280;34442;52.362;-1.302;2024-01-06T00:56:37;99718.31;;;6.71;100.00
48652;BME280;34442;52.362;-1.302;2024-01-06T00:59:03;99715.00;;;6.69;100.00
48652;BME280;34442;52.362;-1.302;2024-01-06T01:01:29;99709.88;;;6.74;100.00
48652;BME280;34442;52.362;-1.302;2024-01-06T01:03:54;99722.03;;;6.77;100.00
48652;BME280;34442;52.362;-1.302;2024-01-06T01:06:20;99725.47;;;6.64;100.00
48652;BME280;34442;52.362;-1.302;2024-01-06T01:08:46;99725.84;;;6.61;100.00
48652;BME280;34442;52.362;-1.302;2024-01-06T01:11:12;99720.13;;;6.70;100.00
48652;BME280;34442;52.362;-1.302;2024-01-06T01:13:38;99730.59;;;6.65;100.00
48652;BME280;34442;52.362;-1.302;2024-01-06T01:16:03;99728.94;;;6.64;100.00
48652;BME280;34442;52.362;-1.302;2024-01-06T01:18:29;99738.22;;;6.68;100.00
48652;BME280;34442;52.362;-1.302;2024-01-06T01:20:54;99736.16;;;6.64;100.00
48652;BME280;34442;52.362;-1.302;2024-01-06T01:23:20;99744.94;;;6.58;100.00
48652;BME280;34442;52.362;-1.302;2024-01-06T01:25:45;99749.22;;;6.52;100.00
48652;BME280;34442;52.362;-1.302;2024-01-06T01:28:11;99751.50;;;6.55;100.00
48652;BME280;34442;52.362;-1.302;2024-01-06T01:30:36;99753.97;;;6.57;100.00
48652;BME280;34442;52.362;-1.302;2024-01-06T01:33:01;99759.50;;;6.55;100.00
48652;BME280;34442;52.362;-1.302;2024-01-06T01:35:27;99762.41;;;6.60;100.00
48652;BME280;34442;52.362;-1.302;2024-01-06T01:37:52;99761.75;;;6.52;100.00
48652;BME280;34442;52.362;-1.302;2024-01-06T01:40:18;99755.38;;;6.53;100.00
48652;BME280;34442;52.362;-1.302;2024-01-06T01:42:43;99755.66;;;6.64;100.00
48652;BME280;34442;52.362;-1.302;2024-01-06T01:45:09;99763.13;;;6.76;100.00
48652;BME280;34442;52.362;-1.302;2024-01-06T01:47:35;99768.91;;;6.79;100.00
48652;BME280;34442;52.362;-1.302;2024-01-06T01:50:01;99769.91;;;6.78;100.00
48652;BME280;34442;52.362;-1.302;2024-01-06T01:52:28;99766.63;;;6.76;100.00
48652;BME280;34442;52.362;-1.302;2024-01-06T01:54:53;99766.97;;;6.66;100.00
48652;BME280;34442;52.362;-1.302;2024-01-06T01:57:20;99769.53;;;6.81;100.00
48652;BME280;34442;52.362;-1.302;2024-01-06T01:59:47;99769.69;;;6.73;100.00
48652;BME280;34442;52.362;-1.302;2024-01-06T02:02:13;99780.16;;;6.75;100.00
48652;BME280;34442;52.362;-1.302;2024-01-06T02:04:39;99775.97;;;6.59;100.00
48652;BME280;34442;52.362;-1.302;2024-01-06T02:07:04;99777.72;;;6.45;100.00
48652;BME280;34442;52.362;-1.302;2024-01-06T02:09:30;99789.16;;;6.67;100.00
48652;BME280;34442;52.362;-1.302;2024-01-06T02:11:58;99789.59;;;6.70;100.00
48652;BME280;34442;52.362;-1.302;2024-01-06T02:14:24;99797.34;;;6.59;100.00
48652;BME280;34442;52.362;-1.302;2024-01-06T02:16:50;99795.03;;;6.56;100.00
48652;BME280;34442;52.362;-1.302;2024-01-06T02:19:16;99803.00;;;6.49;100.00
48652;BME280;34442;52.362;-1.302;2024-01-06T02:21:43;99812.13;;;6.61;100.00
48652;BME280;34442;52.362;-1.302;2024-01-06T02:24:10;99803.22;;;6.54;100.00
48652;BME280;34442;52.362;-1.302;2024-01-06T02:26:35;99810.56;;;6.74;100.00
48652;BME280;34442;52.362;-1.302;2024-01-06T02:29:01;99817.75;;;6.73;100.00
48652;BME280;34442;52.362;-1.302;2024-01-06T02:31:30;99822.34;;;6.79;100.00
48652;BME280;34442;52.362;-1.302;2024-01-06T02:33:55;99827.81;;;6.71;100.00
48652;BME280;34442;52.362;-1.302;2024-01-06T02:36:20;99828.88;;;6.77;100.00
48652;BME280;34442;52.362;-1.302;2024-01-06T02:38:46;99834.00;;;6.78;100.00
48652;BME280;34442;52.362;-1.302;2024-01-06T02:41:11;99838.06;;;6.95;100.00
48652;BME280;34442;52.362;-1.302;2024-01-06T02:43:37;99836.06;;;6.76;100.00
48652;BME280;34442;52.362;-1.302;2024-01-06T02:46:02;99838.50;;;6.71;100.00
48652;BME280;34442;52.362;-1.302;2024-01-06T02:48:27;99842.28;;;6.83;100.00
48652;BME280;34442;52.362;-1.302;2024-01-06T02:50:56;99834.59;;;7.02;100.00
48652;BME280;34442;52.362;-1.302;2024-01-06T02:53:21;99849.59;;;7.03;100.00
48652;BME280;34442;52.362;-1.302;2024-01-06T02:55:46;99836.22;;;6.96;100.00
48652;BME280;34442;52.362;-1.302;2024-01-06T02:58:12;99846.91;;;6.96;100.00
48652;BME280;34442;52.362;-1.302;2024-01-06T03:00:37;99846.06;;;6.95;100.00
48652;BME280;34442;52.362;-1.302;2024-01-06T03:03:03;99841.50;;;6.89;100.00
48652;BME280;34442;52.362;-1.302;2024-01-06T03:05:28;99842.91;;;6.85;100.00
48652;BME280;34442;52.362;-1.302;2024-01-06T03:07:53;99850.72;;;6.87;100.00
48652;BME280;34442;52.362;-1.302;2024-01-06T03:10:19;99845.63;;;6.92;100.00
48652;BME280;34442;52.362;-1.302;2024-01-06T03:12:44;99853.22;;;6.95;100.00
48652;BME280;34442;52.362;-1.302;2024-01-06T03:15:09;99856.41;;;7.05;100.00
48652;BME280;34442;52.362;-1.302;2024-01-06T03:17:36;99856.16;;;7.00;100.00
48652;BME280;34442;52.362;-1.302;2024-01-06T03:20:02;99861.50;;;7.00;100.00
48652;BME280;34442;52.362;-1.302;2024-01-06T03:22:29;99869.53;;;7.00;100.00
48652;BME280;34442;52.362;-1.302;2024-01-06T03:24:54;99865.34;;;6.91;100.00
48652;BME280;34442;52.362;-1.302;2024-01-06T03:27:20;99869.91;;;6.97;100.00
48652;BME280;34442;52.362;-1.302;2024-01-06T03:29:45;99867.69;;;7.01;100.00
48652;BME280;34442;52.362;-1.302;2024-01-06T03:32:10;99876.28;;;6.96;100.00
48652;BME280;34442;52.362;-1.302;2024-01-06T03:34:36;99873.84;;;7.01;100.00
48652;BME280;34442;52.362;-1.302;2024-01-06T03:37:01;99880.53;;;6.90;100.00
48652;BME280;34442;52.362;-1.302;2024-01-06T03:39:27;99879.72;;;6.90;100.00
48652;BME280;34442;52.362;-1.302;2024-01-06T03:41:53;99877.78;;;6.77;100.00
48652;BME280;34442;52.362;-1.302;2024-01-06T03:44:19;99883.91;;;6.71;100.00
48652;BME280;34442;52.362;-1.302;2024-01-06T03:46:44;99876.28;;;6.68;100.00
48652;BME280;34442;52.362;-1.302;2024-01-06T03:49:09;99885.03;;;6.55;100.00
48652;BME280;34442;52.362;-1.302;2024-01-06T03:51:35;99881.38;;;6.63;100.00
48652;BME280;34442;52.362;-1.302;2024-01-06T03:54:00;99881.41;;;6.69;100.00
48652;BME280;34442;52.362;-1.302;2024-01-06T03:56:26;99887.13;;;6.66;100.00
48652;BME280;34442;52.362;-1.302;2024-01-06T03:58:51;99892.69;;;6.65;100.00
48652;BME280;34442;52.362;-1.302;2024-01-06T04:01:17;99900.84;;;6.57;100.00
48652;BME280;34442;52.362;-1.302;2024-01-06T04:03:42;99896.34;;;6.85;100.00
48652;BME280;34442;52.362;-1.302;2024-01-06T04:06:08;99897.69;;;6.75;100.00
48652;BME280;34442;52.362;-1.302;2024-01-06T04:08:35;99897.28;;;6.71;100.00
48652;BME280;34442;52.362;-1.302;2024-01-06T04:11:01;99905.63;;;6.40;100.00
48652;BME280;34442;52.362;-1.302;2024-01-06T04:13:26;99910.50;;;6.58;100.00
48652;BME280;34442;52.362;-1.302;2024-01-06T04:15:52;99910.44;;;6.51;100.00
48652;BME280;34442;52.362;-1.302;2024-01-06T04:18:17;99909.75;;;6.64;100.00
48652;BME280;34442;52.362;-1.302;2024-01-06T04:20:43;99906.28;;;6.70;100.00
48652;BME280;34442;52.362;-1.302;2024-01-06T04:23:09;99904.84;;;6.67;100.00
48652;BME280;34442;52.362;-1.302;2024-01-06T04:25:34;99905.91;;;6.73;100.00
48652;BME280;34442;52.362;-1.302;2024-01-06T04:27:59;99919.78;;;6.62;100.00
48652;BME280;34442;52.362;-1.302;2024-01-06T04:30:25;99929.47;;;6.63;100.00
48652;BME280;34442;52.362;-1.302;2024-01-06T04:32:51;99922.63;;;6.82;100.00
48652;BME280;34442;52.362;-1.302;2024-01-06T04:35:16;99922.06;;;6.65;100.00
48652;BME280;34442;52.362;-1.302;2024-01-06T04:37:42;99928.81;;;6.61;100.00
48652;BME280;34442;52.362;-1.302;2024-01-06T04:40:08;99930.88;;;6.59;100.00
48652;BME280;34442;52.362;-1.302;2024-01-06T04:42:33;99931.28;;;6.62;100.00
48652;BME280;34442;52.362;-1.302;2024-01-06T04:44:59;99934.94;;;6.55;100.00
48652;BME280;34442;52.362;-1.302;2024-01-06T04:47:24;99935.03;;;6.68;100.00
48652;BME280;34442;52.362;-1.302;2024-01-06T04:49:50;99943.34;;;6.58;100.00
48652;BME280;34442;52.362;-1.302;2024-01-06T04:52:15;99939.88;;;6.58;100.00
48652;BME280;34442;52.362;-1.302;2024-01-06T04:54:41;99948.78;;;6.43;100.00
48652;BME280;34442;52.362;-1.302;2024-01-06T04:57:06;99942.59;;;6.64;100.00
48652;BME280;34442;52.362;-1.302;2024-01-06T04:59:32;99946.69;;;6.60;100.00
48652;BME280;34442;52.362;-1.302;2024-01-06T05:01:57;99942.28;;;6.53;100.00
48652;BME280;34442;52.362;-1.302;2024-01-06T05:04:23;99943.81;;;6.40;100.00
48652;BME280;34442;52.362;-1.302;2024-01-06T05:06:50;99954.50;;;6.62;100.00
48652;BME280;34442;52.362;-1.302;2024-01-06T05:09:16;99954.56;;;6.68;100.00
48652;BME280;34442;52.362;-1.302;2024-01-06T05:11:43;99961.22;;;6.58;100.00
48652;BME280;34442;52.362;-1.302;2024-01-06T05:14:09;99967.41;;;6.58;100.00
48652;BME280;34442;52.362;-1.302;2024-01-06T05:16:37;99961.44;;;6.56;100.00
48652;BME280;34442;52.362;-1.302;2024-01-06T05:19:03;99973.25;;;6.47;100.00
48652;BME280;34442;52.362;-1.302;2024-01-06T05:21:29;99969.44;;;6.56;100.00
48652;BME280;34442;52.362;-1.302;2024-01-06T05:23:55;99972.94;;;6.57;100.00
48652;BME280;34442;52.362;-1.302;2024-01-06T05:26:20;99972.63;;;6.45;100.00
48652;BME280;34442;52.362;-1.302;2024-01-06T05:28:46;99983.00;;;6.55;100.00
48652;BME280;34442;52.362;-1.302;2024-01-06T05:31:11;99978.22;;;6.50;100.00
48652;BME280;34442;52.362;-1.302;2024-01-06T05:33:37;99982.16;;;6.54;100.00
48652;BME280;34442;52.362;-1.302;2024-01-06T05:36:02;99992.69;;;6.41;100.00
48652;BME280;34442;52.362;-1.302;2024-01-06T05:38:28;100001.16;;;6.44;100.00
48652;BME280;34442;52.362;-1.302;2024-01-06T05:40:53;99999.88;;;6.40;100.00
48652;BME280;34442;52.362;-1.302;2024-01-06T05:43:18;100000.13;;;6.45;100.00
48652;BME280;34442;52.362;-1.302;2024-01-06T05:45:44;100003.22;;;6.28;100.00
48652;BME280;34442;52.362;-1.302;2024-01-06T05:48:10;100003.78;;;6.38;100.00
48652;BME280;34442;52.362;-1.302;2024-01-06T05:50:39;100008.16;;;6.45;100.00
48652;BME280;34442;52.362;-1.302;2024-01-06T05:53:05;100008.16;;;6.45;100.00
48652;BME280;34442;52.362;-1.302;2024-01-06T05:55:30;100012.78;;;6.58;100.00
48652;BME280;34442;52.362;-1.302;2024-01-06T05:57:56;100022.97;;;6.48;100.00
48652;BME280;34442;52.362;-1.302;2024-01-06T06:00:21;100023.06;;;6.55;100.00
48652;BME280;34442;52.362;-1.302;2024-01-06T06:02:46;100028.41;;;6.55;100.00
48652;BME280;34442;52.362;-1.302;2024-01-06T06:05:12;100025.16;;;6.59;100.00
48652;BME280;34442;52.362;-1.302;2024-01-06T06:07:38;100029.69;;;6.44;100.00
48652;BME280;34442;52.362;-1.302;2024-01-06T06:10:08;100030.53;;;6.44;100.00
48652;BME280;34442;52.362;-1.302;2024-01-06T06:12:34;100040.50;;;6.36;100.00
48652;BME280;34442;52.362;-1.302;2024-01-06T06:15:00;100031.34;;;6.45;100.00
48652;BME280;34442;52.362;-1.302;2024-01-06T06:17:25;100037.00;;;6.35;100.00
48652;BME280;34442;52.362;-1.302;2024-01-06T06:19:51;100040.59;;;6.42;100.00
48652;BME280;34442;52.362;-1.302;2024-01-06T06:22:16;100042.84;;;6.45;100.00
48652;BME280;34442;52.362;-1.302;2024-01-06T06:24:41;100049.06;;;6.46;100.00
48652;BME280;34442;52.362;-1.302;2024-01-06T06:27:08;100055.59;;;6.43;100.00
48652;BME280;34442;52.362;-1.302;2024-01-06T06:29:33;100058.34;;;6.35;100.00
48652;BME280;34442;52.362;-1.302;2024-01-06T06:31:59;100058.81;;;6.39;100.00
48652;BME280;34442;52.362;-1.302;2024-01-06T06:34:24;100067.16;;;6.51;100.00
48652;BME280;34442;52.362;-1.302;2024-01-06T06:36:50;100066.22;;;6.58;100.00
48652;BME280;34442;52.362;-1.302;2024-01-06T06:39:15;100074.00;;;6.38;100.00
48652;BME280;34442;52.362;-1.302;2024-01-06T06:41:41;100082.88;;;6.60;100.00
48652;BME280;34442;52.362;-1.302;2024-01-06T06:44:06;100082.06;;;6.60;100.00
48652;BME280;34442;52.362;-1.302;2024-01-06T06:46:31;100082.44;;;6.57;100.00
48652;BME280;34442;52.362;-1.302;2024-01-06T06:48:57;100095.16;;;6.40;100.00
48652;BME280;34442;52.362;-1.302;2024-01-06T06:51:22;100099.94;;;6.44;100.00
48652;BME280;34442;52.362;-1.302;2024-01-06T06:53:51;100089.97;;;6.53;100.00
48652;BME280;34442;52.362;-1.302;2024-01-06T06:56:17;100088.13;;;6.54;100.00
48652;BME280;34442;52.362;-1.302;2024-01-06T06:58:43;100098.00;;;6.53;100.00
48652;BME280;34442;52.362;-1.302;2024-01-06T07:01:08;100101.16;;;6.42;100.00
48652;BME280;34442;52.362;-1.302;2024-01-06T07:03:34;100106.84;;;6.54;100.00
48652;BME280;34442;52.362;-1.302;2024-01-06T07:05:59;100102.16;;;6.56;100.00
48652;BME280;34442;52.362;-1.302;2024-01-06T07:08:24;100107.56;;;6.62;100.00
48652;BME280;34442;52.362;-1.302;2024-01-06T07:10:50;100116.06;;;6.36;100.00
48652;BME280;34442;52.362;-1.302;2024-01-06T07:13:15;100122.22;;;6.37;100.00
48652;BME280;34442;52.362;-1.302;2024-01-06T07:15:40;100123.50;;;6.56;100.00
48652;BME280;34442;52.362;-1.302;2024-01-06T07:18:06;100133.47;;;6.47;100.00
48652;BME280;34442;52.362;-1.302;2024-01-06T07:20:32;100143.22;;;6.40;100.00
48652;BME280;34442;52.362;-1.302;2024-01-06T07:22:57;100145.28;;;6.38;100.00
48652;BME280;34442;52.362;-1.302;2024-01-06T07:25:23;100147.84;;;6.31;100.00
48652;BME280;34442;52.362;-1.302;2024-01-06T07:27:48;100150.31;;;6.33;100.00
48652;BME280;34442;52.362;-1.302;2024-01-06T07:30:14;100155.94;;;6.38;100.00
48652;BME280;34442;52.362;-1.302;2024-01-06T07:32:39;100172.59;;;6.40;100.00
48652;BME280;34442;52.362;-1.302;2024-01-06T07:35:05;100173.78;;;6.37;100.00
48652;BME280;34442;52.362;-1.302;2024-01-06T07:37:30;100173.81;;;6.22;100.00
48652;BME280;34442;52.362;-1.302;2024-01-06T07:39:56;100178.59;;;6.27;100.00
48652;BME280;34442;52.362;-1.302;2024-01-06T07:42:21;100194.25;;;6.30;100.00
48652;BME280;34442;52.362;-1.302;2024-01-06T07:44:47;100198.28;;;6.26;100.00
48652;BME280;34442;52.362;-1.302;2024-01-06T07:47:12;100200.72;;;6.13;100.00
48652;BME280;34442;52.362;-1.302;2024-01-06T07:49:38;100197.41;;;5.96;100.00
48652;BME280;34442;52.362;-1.302;2024-01-06T07:52:03;100205.50;;;5.80;100.00
48652;BME280;34442;52.362;-1.302;2024-01-06T07:54:30;100212.59;;;5.95;100.00
48652;BME280;34442;52.362;-1.302;2024-01-06T07:56:55;100212.47;;;5.89;100.00
48652;BME280;34442;52.362;-1.302;2024-01-06T07:59:20;100214.81;;;5.84;100.00
48652;BME280;34442;52.362;-1.302;2024-01-06T08:01:46;100222.47;;;5.87;100.00
48652;BME280;34442;52.362;-1.302;2024-01-06T08:04:11;100232.56;;;5.77;100.00
48652;BME280;34442;52.362;-1.302;2024-01-06T08:06:37;100239.13;;;5.66;100.00
48652;BME280;34442;52.362;-1.302;2024-01-06T08:09:02;100238.38;;;5.57;100.00
48652;BME280;34442;52.362;-1.302;2024-01-06T08:11:28;100243.50;;;5.59;100.00
48652;BME280;34442;52.362;-1.302;2024-01-06T08:13:54;100250.44;;;5.45;100.00
48652;BME280;34442;52.362;-1.302;2024-01-06T08:16:20;100255.66;;;5.38;100.00
48652;BME280;34442;52.362;-1.302;2024-01-06T08:18:45;100265.47;;;5.38;100.00
48652;BME280;34442;52.362;-1.302;2024-01-06T08:21:11;100263.84;;;5.37;100.00
48652;BME280;34442;52.362;-1.302;2024-01-06T08:23:37;100269.50;;;5.34;100.00
48652;BME280;34442;52.362;-1.302;2024-01-06T08:26:02;100279.69;;;5.30;100.00
48652;BME280;34442;52.362;-1.302;2024-01-06T08:28:29;100283.16;;;5.31;100.00
48652;BME280;34442;52.362;-1.302;2024-01-06T08:30:55;100287.69;;;5.30;100.00
48652;BME280;34442;52.362;-1.302;2024-01-06T08:33:20;100290.88;;;5.26;100.00
48652;BME280;34442;52.362;-1.302;2024-01-06T08:35:46;100303.06;;;5.20;100.00
48652;BME280;34442;52.362;-1.302;2024-01-06T08:38:11;100301.75;;;5.16;100.00
48652;BME280;34442;52.362;-1.302;2024-01-06T08:40:37;100303.72;;;5.22;100.00
48652;BME280;34442;52.362;-1.302;2024-01-06T08:43:03;100308.72;;;5.17;100.00
48652;BME280;34442;52.362;-1.302;2024-01-06T08:45:28;100306.22;;;5.23;100.00
48652;BME280;34442;52.362;-1.302;2024-01-06T08:47:54;100316.38;;;5.20;100.00
48652;BME280;34442;52.362;-1.302;2024-01-06T08:50:20;100314.56;;;5.20;100.00
48652;BME280;34442;52.362;-1.302;2024-01-06T08:52:45;100319.88;;;5.20;100.00
48652;BME280;34442;52.362;-1.302;2024-01-06T08:55:11;100316.09;;;5.15;100.00
48652;BME280;34442;52.362;-1.302;2024-01-06T08:57:36;100321.38;;;5.23;100.00
48652;BME280;34442;52.362;-1.302;2024-01-06T09:00:03;100331.41;;;5.13;100.00
48652;BME280;34442;52.362;-1.302;2024-01-06T09:02:29;100342.72;;;5.15;100.00
48652;BME280;34442;52.362;-1.302;2024-01-06T09:04:54;100343.88;;;5.20;100.00
48652;BME280;34442;52.362;-1.302;2024-01-06T09:07:20;100343.06;;;5.12;100.00
48652;BME280;34442;52.362;-1.302;2024-01-06T09:09:45;100348.69;;;5.17;100.00
48652;BME280;34442;52.362;-1.302;2024-01-06T09:12:10;100353.56;;;5.05;100.00
48652;BME280;34442;52.362;-1.302;2024-01-06T09:14:36;100360.72;;;5.13;100.00
48652;BME280;34442;52.362;-1.302;2024-01-06T09:17:02;100363.88;;;5.16;100.00
48652;BME280;34442;52.362;-1.302;2024-01-06T09:19:27;100366.03;;;5.13;100.00
48652;BME280;34442;52.362;-1.302;2024-01-06T09:21:54;100369.03;;;5.10;100.00
48652;BME280;34442;52.362;-1.302;2024-01-06T09:24:20;100368.06;;;5.11;100.00
48652;BME280;34442;52.362;-1.302;2024-01-06T09:26:45;100376.19;;;5.17;100.00
48652;BME280;34442;52.362;-1.302;2024-01-06T09:29:11;100383.00;;;5.20;100.00
48652;BME280;34442;52.362;-1.302;2024-01-06T09:31:37;100384.19;;;5.09;100.00
48652;BME280;34442;52.362;-1.302;2024-01-06T09:34:02;100386.34;;;5.14;100.00
48652;BME280;34442;52.362;-1.302;2024-01-06T09:36:29;100383.53;;;5.15;100.00
48652;BME280;34442;52.362;-1.302;2024-01-06T09:38:54;100392.34;;;5.16;100.00
48652;BME280;34442;52.362;-1.302;2024-01-06T09:41:20;100396.66;;;5.17;100.00
48652;BME280;34442;52.362;-1.302;2024-01-06T09:43:47;100390.66;;;5.23;100.00
48652;BME280;34442;52.362;-1.302;2024-01-06T09:46:21;100393.34;;;5.15;100.00
48652;BME280;34442;52.362;-1.302;2024-01-06T09:48:51;100400.88;;;5.03;100.00
48652;BME280;34442;52.362;-1.302;2024-01-06T09:51:19;100398.69;;;5.15;100.00
48652;BME280;34442;52.362;-1.302;2024-01-06T09:53:52;100404.63;;;5.25;100.00
48652;BME280;34442;52.362;-1.302;2024-01-06T09:56:21;100401.31;;;5.31;100.00
48652;BME280;34442;52.362;-1.302;2024-01-06T09:58:50;100399.66;;;5.22;100.00
48652;BME280;34442;52.362;-1.302;2024-01-06T10:01:17;100409.72;;;4.95;100.00
48652;BME280;34442;52.362;-1.302;2024-01-06T10:03:43;100411.03;;;5.08;100.00
48652;BME280;34442;52.362;-1.302;2024-01-06T10:06:10;100407.50;;;5.15;100.00
48652;BME280;34442;52.362;-1.302;2024-01-06T10:08:36;100415.00;;;5.20;100.00
48652;BME280;34442;52.362;-1.302;2024-01-06T10:11:01;100418.97;;;5.63;100.00
48652;BME280;34442;52.362;-1.302;2024-01-06T10:13:27;100413.53;;;5.88;100.00
48652;BME280;34442;52.362;-1.302;2024-01-06T10:15:56;100415.34;;;5.95;100.00
48652;BME280;34442;52.362;-1.302;2024-01-06T10:18:21;100421.47;;;6.04;100.00
48652;BME280;34442;52.362;-1.302;2024-01-06T10:20:47;100422.03;;;6.22;100.00
48652;BME280;34442;52.362;-1.302;2024-01-06T10:23:13;100418.94;;;6.11;100.00
48652;BME280;34442;52.362;-1.302;2024-01-06T10:25:38;100423.97;;;6.06;100.00
48652;BME280;34442;52.362;-1.302;2024-01-06T10:28:04;100423.22;;;5.89;100.00
48652;BME280;34442;52.362;-1.302;2024-01-06T10:30:30;100424.56;;;6.16;100.00
48652;BME280;34442;52.362;-1.302;2024-01-06T10:32:55;100427.53;;;6.21;100.00
48652;BME280;34442;52.362;-1.302;2024-01-06T10:35:20;100423.81;;;6.30;100.00
48652;BME280;34442;52.362;-1.302;2024-01-06T10:37:47;100418.00;;;6.27;100.00
48652;BME280;34442;52.362;-1.302;2024-01-06T10:40:15;100432.19;;;6.27;100.00
48652;BME280;34442;52.362;-1.302;2024-01-06T10:42:41;100426.06;;;6.41;100.00
48652;BME280;34442;52.362;-1.302;2024-01-06T10:45:13;100426.31;;;6.32;100.00
48652;BME280;34442;52.362;-1.302;2024-01-06T10:47:42;100431.88;;;6.45;100.00
48652;BME280;34442;52.362;-1.302;2024-01-06T10:50:08;100428.56;;;6.43;100.00
48652;BME280;34442;52.362;-1.302;2024-01-06T10:52:34;100431.94;;;6.60;100.00
48652;BME280;34442;52.362;-1.302;2024-01-06T10:55:04;100430.09;;;6.60;100.00
48652;BME280;34442;52.362;-1.302;2024-01-06T10:57:30;100432.41;;;6.63;100.00
48652;BME280;34442;52.362;-1.302;2024-01-06T10:59:59;100441.69;;;5.99;100.00
48652;BME280;34442;52.362;-1.302;2024-01-06T11:02:26;100437.03;;;5.92;100.00
48652;BME280;34442;52.362;-1.302;2024-01-06T11:04:52;100444.56;;;5.97;100.00
48652;BME280;34442;52.362;-1.302;2024-01-06T11:07:19;100441.91;;;5.89;100.00
48652;BME280;34442;52.362;-1.302;2024-01-06T11:10:00;100445.81;;;6.09;100.00
48652;BME280;34442;52.362;-1.302;2024-01-06T11:12:28;100439.50;;;6.02;100.00
48652;BME280;34442;52.362;-1.302;2024-01-06T11:14:54;100446.53;;;5.95;100.00
48652;BME280;34442;52.362;-1.302;2024-01-06T11:17:54;100443.31;;;6.08;100.00
48652;BME280;34442;52.362;-1.302;2024-01-06T11:20:24;100446.06;;;6.22;100.00
48652;BME280;34442;52.362;-1.302;2024-01-06T11:22:50;100445.88;;;6.24;100.00
48652;BME280;34442;52.362;-1.302;2024-01-06T11:25:18;100452.47;;;6.13;100.00
48652;BME280;34442;52.362;-1.302;2024-01-06T11:27:46;100450.44;;;6.15;100.00
48652;BME280;34442;52.362;-1.302;2024-01-06T11:30:25;100444.91;;;6.17;100.00
48652;BME280;34442;52.362;-1.302;2024-01-06T11:32:53;100445.00;;;6.32;100.00
48652;BME280;34442;52.362;-1.302;2024-01-06T11:35:19;100448.78;;;6.37;100.00
48652;BME280;34442;52.362;-1.302;2024-01-06T11:42:47;100453.81;;;7.31;100.00
48652;BME280;34442;52.362;-1.302;2024-01-06T11:45:13;100447.81;;;7.14;100.00
48652;BME280;34442;52.362;-1.302;2024-01-06T11:47:39;100458.31;;;7.15;100.00
48652;BME280;34442;52.362;-1.302;2024-01-06T11:50:06;100460.03;;;6.93;100.00
48652;BME280;34442;52.362;-1.302;2024-01-06T11:52:32;100459.19;;;6.93;100.00
48652;BME280;34442;52.362;-1.302;2024-01-06T11:54:59;100458.03;;;7.10;100.00
48652;BME280;34442;52.362;-1.302;2024-01-06T11:57:28;100460.66;;;6.81;100.00
48652;BME280;34442;52.362;-1.302;2024-01-06T11:59:54;100453.72;;;7.09;100.00
48652;BME280;34442;52.362;-1.302;2024-01-06T12:02:20;100463.66;;;7.01;100.00
48652;BME280;34442;52.362;-1.302;2024-01-06T12:04:50;100465.97;;;7.04;100.00
48652;BME280;34442;52.362;-1.302;2024-01-06T12:07:19;100465.31;;;7.02;100.00
48652;BME280;34442;52.362;-1.302;2024-01-06T12:09:46;100465.63;;;6.84;100.00
48652;BME280;34442;52.362;-1.302;2024-01-06T12:12:15;100459.41;;;7.06;100.00
48652;BME280;34442;52.362;-1.302;2024-01-06T12:14:41;100458.97;;;7.32;100.00
48652;BME280;34442;52.362;-1.302;2024-01-06T12:17:11;100460.84;;;7.46;100.00
48652;BME280;34442;52.362;-1.302;2024-01-06T12:19:39;100458.63;;;7.50;100.00
48652;BME280;34442;52.362;-1.302;2024-01-06T12:22:09;100461.19;;;7.43;100.00
48652;BME280;34442;52.362;-1.302;2024-01-06T12:24:35;100458.63;;;7.20;100.00
48652;BME280;34442;52.362;-1.302;2024-01-06T12:27:01;100465.03;;;7.11;100.00
48652;BME280;34442;52.362;-1.302;2024-01-06T12:29:27;100457.41;;;7.08;100.00
48652;BME280;34442;52.362;-1.302;2024-01-06T12:31:59;100462.56;;;7.10;100.00
48652;BME280;34442;52.362;-1.302;2024-01-06T12:34:24;100466.59;;;7.06;100.00
48652;BME280;34442;52.362;-1.302;2024-01-06T12:36:52;100458.16;;;7.17;100.00
48652;BME280;34442;52.362;-1.302;2024-01-06T12:39:18;100463.50;;;7.17;100.00
48652;BME280;34442;52.362;-1.302;2024-01-06T12:41:43;100462.38;;;7.26;100.00
48652;BME280;34442;52.362;-1.302;2024-01-06T12:44:09;100458.34;;;7.30;100.00